Stratton, Illinois
Current Conditions -  °F | °C
As of 12:55 PM on Tuesday 27 Jan 2015 (Local Time) from KMVN Reporting Station
Overcast Overcast  
Wind Chill: 36°   Ceiling: 3300
Heat Index: 41°   Visibility: 10mi
Dew Point: 27°   Wind: 7mph
Humidity: 57%   Direction: 340°NNW
Pressure: 30.14"   Gusts: NA
Location:  38.3716°N, 88.6497°W
Report Text: KMVN 271855Z AUTO 34006KT 10SM OVC033 05/M03 A3014 RMK AO1
Loading
Personal Weather Stations






























Interactive Weather Map New forecast layout! Learn more

10-Day Weather Forecast

Advertisements
Track Severe Weather on mobile